Terminal Aerodrome Forecast
Issued by NWS Topeka, KS

Home | Current Version | Previous Version | Graphics & Text | Print | Product List | Glossary On
Versions: 1 2 3 4 5 6 7 8 9 10 11 12 13 14 15 16
000
FTUS43 KTOP 191100
TAFTOP
TAF
KTOP 191124Z 1912/2012 28009KT P6SM FEW035
     FM191500 32012G19KT P6SM SCT035
     FM192300 31009KT P6SM FEW035
     FM200100 26003KT P6SM FEW035=

USA.gov is the U.S. government's official web portal to all federal, state and local government web resources and services.